Time;durP1;ratioP1;P1;durP2;ratioP2;P2;SDS_P1;SDS_P2;PMS_P1;PMS_P2;Temp;Humidity;BMP_temperature;BMP_pressure;BME280_temperature;BME280_humidity;BME280_pressure;Samples;Min_cycle;Max_cycle;Signal;HPM_P1;HPM_P2
2021/05/10 00:00:23;;;;;;;4.23;3.90;;;20.70;99.90;;;;;;6199679;23;20475;-70
2021/05/10 00:02:48;;;;;;;4.23;3.40;;;20.80;99.90;;;;;;6198607;23;20184;-70
2021/05/10 00:05:14;;;;;;;4.43;3.70;;;20.70;99.90;;;;;;6170199;22;20222;-71
2021/05/10 00:07:40;;;;;;;3.90;3.57;;;20.50;99.90;;;;;;6194576;23;20221;-68
2021/05/10 00:10:06;;;;;;;3.70;3.50;;;20.70;99.90;;;;;;6194383;23;20294;-70
2021/05/10 00:12:32;;;;;;;4.27;3.97;;;20.60;99.90;;;;;;6167509;23;20165;-70
2021/05/10 00:14:57;;;;;;;4.30;4.00;;;20.60;99.90;;;;;;6195196;22;21087;-70
2021/05/10 00:17:25;;;;;;;4.10;3.80;;;20.50;99.90;;;;;;6193576;23;20173;-70
2021/05/10 00:19:53;;;;;;;4.40;4.00;;;20.50;99.90;;;;;;6197139;23;20229;-70
2021/05/10 00:22:19;;;;;;;3.90;3.60;;;20.50;99.90;;;;;;6169533;23;20560;-70
2021/05/10 00:24:44;;;;;;;3.73;3.43;;;20.50;99.90;;;;;;6194839;22;20904;-70
2021/05/10 00:27:10;;;;;;;5.50;3.67;;;20.50;99.90;;;;;;6201056;23;20214;-70
2021/05/10 00:29:35;;;;;;;4.17;3.47;;;20.50;99.90;;;;;;6199174;23;20259;-70
2021/05/10 00:32:01;;;;;;;3.90;3.60;;;20.50;99.90;;;;;;6194622;23;20765;-70
2021/05/10 00:34:29;;;;;;;4.50;4.20;;;20.40;99.90;;;;;;6200110;22;20526;-70
2021/05/10 00:36:55;;;;;;;4.03;3.63;;;20.40;99.90;;;;;;6195635;23;20183;-70
2021/05/10 00:39:21;;;;;;;4.83;3.70;;;20.30;99.90;;;;;;6198244;23;20540;-69
2021/05/10 00:41:47;;;;;;;4.40;3.97;;;20.30;99.90;;;;;;6176409;22;20196;-86
2021/05/10 00:44:12;;;;;;;3.90;3.70;;;20.30;99.90;;;;;;6146295;22;20611;-85
2021/05/10 00:46:39;;;;;;;3.93;3.70;;;20.20;99.90;;;;;;6149595;23;20192;-86
2021/05/10 00:49:05;;;;;;;4.03;3.63;;;20.20;99.90;;;;;;6176468;23;20282;-86
2021/05/10 00:51:33;;;;;;;3.30;3.10;;;20.10;99.90;;;;;;6151936;23;20595;-85
2021/05/10 00:54:02;;;;;;;3.30;3.03;;;20.10;99.90;;;;;;6179714;22;20930;-86
2021/05/10 00:56:28;;;;;;;3.83;3.53;;;20.10;99.90;;;;;;6156727;23;21130;-86
2021/05/10 00:58:54;;;;;;;3.70;3.50;;;20.00;99.90;;;;;;6206471;23;20559;-85
2021/05/10 01:01:19;;;;;;;3.60;3.30;;;20.00;99.90;;;;;;6181461;23;20547;-86
2021/05/10 01:03:49;;;;;;;3.53;3.23;;;20.00;99.90;;;;;;6181275;23;20603;-86
2021/05/10 01:06:16;;;;;;;3.33;3.13;;;19.90;99.90;;;;;;6179665;23;20156;-86
2021/05/10 01:08:42;;;;;;;3.30;3.10;;;20.00;99.90;;;;;;6180864;23;20575;-86
2021/05/10 01:11:07;;;;;;;2.90;2.70;;;20.00;99.90;;;;;;6182820;23;20581;-86
2021/05/10 01:13:33;;;;;;;3.37;3.17;;;19.90;99.90;;;;;;6207190;23;20196;-85
2021/05/10 01:15:59;;;;;;;3.90;2.70;;;19.90;99.90;;;;;;6191373;23;20252;-86
2021/05/10 01:18:26;;;;;;;3.40;3.20;;;19.90;99.90;;;;;;6187049;23;20156;-86
2021/05/10 01:20:51;;;;;;;3.13;2.93;;;19.90;99.90;;;;;;6208060;23;20156;-86
2021/05/10 01:23:18;;;;;;;3.13;2.93;;;19.90;99.90;;;;;;6182360;23;20681;-86
2021/05/10 01:25:45;;;;;;;3.90;3.50;;;19.80;99.90;;;;;;6181881;23;20167;-85
2021/05/10 01:28:11;;;;;;;3.87;3.50;;;19.80;99.90;;;;;;6180801;23;20600;-87
2021/05/10 01:30:39;;;;;;;2.77;2.57;;;19.80;99.90;;;;;;6209653;23;20523;-86
2021/05/10 01:33:08;;;;;;;4.73;3.33;;;19.90;99.90;;;;;;6207147;23;20560;-85
2021/05/10 01:35:36;;;;;;;2.70;2.50;;;19.90;99.90;;;;;;6182974;23;20559;-86
2021/05/10 01:38:03;;;;;;;3.33;3.07;;;19.90;99.90;;;;;;6183061;23;20563;-85
2021/05/10 01:40:29;;;;;;;2.80;2.60;;;19.90;99.90;;;;;;6183466;23;20579;-85
2021/05/10 01:42:55;;;;;;;5.07;3.33;;;19.90;99.90;;;;;;6179530;23;20675;-85
2021/05/10 01:45:21;;;;;;;3.07;2.87;;;19.90;99.90;;;;;;6182912;23;21069;-85
2021/05/10 01:47:47;;;;;;;3.10;2.80;;;19.80;99.90;;;;;;6209098;23;20579;-86
2021/05/10 01:50:18;;;;;;;2.90;2.80;;;19.90;99.90;;;;;;6182749;23;20601;-86
2021/05/10 01:52:45;;;;;;;3.00;2.70;;;19.90;99.90;;;;;;6181213;23;20309;-86
2021/05/10 01:55:11;;;;;;;3.23;3.03;;;19.80;99.90;;;;;;6179380;23;20598;-86
2021/05/10 01:57:38;;;;;;;3.00;2.80;;;19.80;99.90;;;;;;6181910;23;20593;-85
2021/05/10 02:00:13;;;;;;;3.77;2.80;;;19.80;99.90;;;;;;6180644;23;20882;-85
2021/05/10 02:02:39;;;;;;;3.00;2.80;;;19.80;99.90;;;;;;6183587;23;21129;-86
2021/05/10 02:05:08;;;;;;;3.10;2.90;;;19.80;99.90;;;;;;6206095;23;20594;-85
2021/05/10 02:07:36;;;;;;;2.63;2.50;;;19.80;99.90;;;;;;6180986;23;20611;-86
2021/05/10 02:10:04;;;;;;;3.07;2.87;;;19.70;99.90;;;;;;6181335;23;21059;-86
2021/05/10 02:12:30;;;;;;;2.70;2.50;;;19.80;99.90;;;;;;6179877;23;20583;-86
2021/05/10 02:14:56;;;;;;;3.43;3.23;;;19.80;99.90;;;;;;6179794;23;20809;-86
2021/05/10 02:17:21;;;;;;;3.40;3.20;;;19.80;99.90;;;;;;6182539;23;20168;-86
2021/05/10 02:19:47;;;;;;;3.60;3.30;;;19.70;99.90;;;;;;6205932;22;20259;-85
2021/05/10 02:22:12;;;;;;;2.93;2.73;;;19.70;99.90;;;;;;6181803;23;20180;-86
2021/05/10 02:24:38;;;;;;;3.07;2.80;;;19.60;99.90;;;;;;6180983;23;20200;-86
2021/05/10 02:27:04;;;;;;;5.53;3.17;;;19.60;99.90;;;;;;6180847;23;20695;-85
2021/05/10 02:29:30;;;;;;;5.47;3.73;;;19.50;99.90;;;;;;6181845;23;20182;-86
2021/05/10 02:31:56;;;;;;;3.83;3.30;;;19.50;99.90;;;;;;6182199;23;20701;-87
2021/05/10 02:34:22;;;;;;;3.87;3.57;;;19.50;99.90;;;;;;6180024;23;20626;-85
2021/05/10 02:36:49;;;;;;;3.50;3.30;;;19.40;99.90;;;;;;6183130;23;20518;-83
2021/05/10 02:39:15;;;;;;;3.63;3.43;;;19.40;99.90;;;;;;6182087;23;20155;-86
2021/05/10 02:41:41;;;;;;;3.50;3.20;;;19.30;99.90;;;;;;6207679;22;20587;-86
2021/05/10 02:44:07;;;;;;;3.70;3.40;;;19.30;99.90;;;;;;6182286;23;20215;-86
2021/05/10 02:46:33;;;;;;;3.40;3.10;;;19.20;99.90;;;;;;6207559;23;20571;-85
2021/05/10 02:48:58;;;;;;;3.43;3.13;;;19.20;99.90;;;;;;6181174;22;20628;-86
2021/05/10 02:51:24;;;;;;;3.53;3.27;;;19.10;99.90;;;;;;6184071;23;20321;-86
2021/05/10 02:53:49;;;;;;;4.43;3.20;;;19.10;99.90;;;;;;6181052;23;20212;-86
2021/05/10 02:56:15;;;;;;;3.57;3.37;;;19.10;99.90;;;;;;6184729;23;20193;-85
2021/05/10 02:58:41;;;;;;;4.63;3.63;;;19.10;99.90;;;;;;6184979;23;20165;-85
2021/05/10 03:01:06;;;;;;;3.20;3.00;;;19.00;99.90;;;;;;6184416;23;20156;-86
2021/05/10 03:03:32;;;;;;;4.33;2.90;;;19.00;99.90;;;;;;6180990;22;20211;-85
2021/05/10 03:05:58;;;;;;;3.20;2.90;;;19.00;99.90;;;;;;6183997;23;20180;-86
2021/05/10 03:08:23;;;;;;;3.70;3.40;;;19.00;99.90;;;;;;6180600;23;20203;-87
2021/05/10 03:10:49;;;;;;;3.40;3.10;;;19.00;99.90;;;;;;6207410;22;20221;-87
2021/05/10 03:13:14;;;;;;;3.10;2.90;;;19.00;99.90;;;;;;6182097;23;20675;-86
2021/05/10 03:15:40;;;;;;;3.00;2.80;;;19.00;99.90;;;;;;6209133;23;20153;-86
2021/05/10 03:18:05;;;;;;;3.97;3.57;;;19.00;99.90;;;;;;6210540;23;20169;-86
2021/05/10 03:20:31;;;;;;;3.93;3.47;;;19.00;99.90;;;;;;6183854;23;20290;-86
2021/05/10 03:22:56;;;;;;;3.90;3.47;;;19.00;99.90;;;;;;6183132;23;20181;-86
2021/05/10 03:25:22;;;;;;;4.10;3.70;;;19.00;99.90;;;;;;6182358;23;20596;-86
2021/05/10 03:27:52;;;;;;;3.00;2.80;;;19.00;99.90;;;;;;6182728;23;20184;-86
2021/05/10 03:30:20;;;;;;;3.63;3.33;;;19.00;99.90;;;;;;6183456;22;20591;-86
2021/05/10 03:32:46;;;;;;;4.93;3.13;;;18.90;99.90;;;;;;6209542;23;20656;-85
2021/05/10 03:35:14;;;;;;;3.50;3.30;;;19.00;99.90;;;;;;6204500;22;20599;-85
2021/05/10 03:37:40;;;;;;;3.60;3.30;;;19.00;99.90;;;;;;6183306;23;21182;-86
2021/05/10 03:40:10;;;;;;;3.30;3.10;;;19.00;99.90;;;;;;6184157;22;20571;-86
2021/05/10 03:42:37;;;;;;;3.77;3.33;;;18.90;99.90;;;;;;6183757;23;20614;-87
2021/05/10 03:45:03;;;;;;;3.50;3.30;;;18.90;99.90;;;;;;6183321;22;20696;-85
2021/05/10 03:47:41;;;;;;;3.63;3.30;;;18.90;99.90;;;;;;6181982;23;20638;-85
2021/05/10 03:50:15;;;;;;;3.33;3.00;;;18.90;99.90;;;;;;6181765;22;20904;-87
2021/05/10 03:52:44;;;;;;;3.63;3.37;;;18.80;99.90;;;;;;6182525;23;20611;-85
2021/05/10 03:55:13;;;;;;;3.37;3.10;;;18.80;99.90;;;;;;6179462;23;20594;-87
2021/05/10 03:57:39;;;;;;;3.40;3.10;;;18.80;99.90;;;;;;6183545;23;20635;-86
2021/05/10 04:00:07;;;;;;;4.23;3.83;;;18.70;99.90;;;;;;6182844;23;20869;-86
2021/05/10 04:02:33;;;;;;;3.60;3.40;;;18.70;99.90;;;;;;6210107;23;20573;-87
2021/05/10 04:07:41;;;;;;;4.03;3.30;;;18.60;99.90;;;;;;6218842;23;20279;-86
2021/05/10 04:15:36;;;;;;;3.07;2.87;;;18.50;99.90;;;;;;6230999;22;20630;-86
2021/05/10 04:18:02;;;;;;;2.90;2.77;;;18.50;99.90;;;;;;6206467;22;20630;-86
2021/05/10 04:20:27;;;;;;;2.87;2.67;;;18.50;99.90;;;;;;6195080;23;20198;-85
2021/05/10 04:22:53;;;;;;;3.63;3.33;;;18.50;99.90;;;;;;6181089;23;20184;-86
2021/05/10 04:25:18;;;;;;;3.57;3.27;;;18.50;99.90;;;;;;6183484;23;20168;-86
2021/05/10 04:27:46;;;;;;;7.30;3.10;;;18.60;99.90;;;;;;6209417;22;20269;-86
2021/05/10 04:30:12;;;;;;;3.73;3.43;;;18.60;99.90;;;;;;6182197;22;20164;-87
2021/05/10 04:32:38;;;;;;;4.40;4.00;;;18.60;99.90;;;;;;6213860;22;20599;-87
2021/05/10 04:35:05;;;;;;;3.53;3.27;;;18.50;99.90;;;;;;6207015;22;20576;-86
2021/05/10 04:37:30;;;;;;;3.37;3.13;;;18.60;99.90;;;;;;6209820;22;20177;-86
2021/05/10 04:39:56;;;;;;;3.70;3.30;;;18.60;99.90;;;;;;6236664;22;20564;-87
2021/05/10 04:42:21;;;;;;;3.80;3.60;;;18.60;99.90;;;;;;6208409;22;20177;-86
2021/05/10 04:44:47;;;;;;;4.13;3.27;;;18.60;99.90;;;;;;6188865;22;20208;-86
2021/05/10 04:47:13;;;;;;;3.53;3.23;;;18.60;99.90;;;;;;6207233;22;20205;-86
2021/05/10 04:49:38;;;;;;;3.87;3.40;;;18.50;99.90;;;;;;6206536;22;20191;-86
2021/05/10 04:52:04;;;;;;;3.70;3.30;;;18.50;99.90;;;;;;6208145;23;20198;-86
2021/05/10 04:54:29;;;;;;;3.50;3.20;;;18.50;99.90;;;;;;6206415;22;20196;-86
2021/05/10 04:56:55;;;;;;;3.60;3.30;;;18.60;99.90;;;;;;6205824;23;20160;-86
2021/05/10 04:59:21;;;;;;;3.50;3.17;;;18.50;99.90;;;;;;6205690;23;20286;-86
2021/05/10 05:01:47;;;;;;;3.33;3.13;;;18.50;99.90;;;;;;6181742;22;20168;-86
2021/05/10 05:04:12;;;;;;;3.70;3.40;;;18.50;99.90;;;;;;6179687;22;20595;-86
2021/05/10 05:06:38;;;;;;;4.20;3.60;;;18.50;99.90;;;;;;6180375;23;20704;-85
2021/05/10 05:09:03;;;;;;;4.20;3.33;;;18.50;99.90;;;;;;6181775;23;20596;-87
2021/05/10 05:11:29;;;;;;;6.07;3.67;;;18.50;99.90;;;;;;6182272;23;20157;-88
2021/05/10 05:13:54;;;;;;;4.13;3.30;;;18.50;99.90;;;;;;6200442;23;20302;-88
2021/05/10 05:16:20;;;;;;;3.80;3.60;;;18.60;99.90;;;;;;6178904;23;20167;-89
2021/05/10 05:18:48;;;;;;;3.90;3.50;;;18.60;99.90;;;;;;6207649;23;20213;-89
2021/05/10 05:21:13;;;;;;;3.70;3.50;;;18.60;99.90;;;;;;6177354;23;20785;-89
2021/05/10 05:23:39;;;;;;;3.73;3.43;;;18.60;99.90;;;;;;6177598;23;20594;-89
2021/05/10 05:26:05;;;;;;;3.57;3.13;;;18.60;99.90;;;;;;6178427;23;20725;-88
2021/05/10 05:28:31;;;;;;;3.90;3.60;;;18.60;99.90;;;;;;6178196;23;20184;-87
2021/05/10 05:31:00;;;;;;;3.70;3.40;;;18.60;99.90;;;;;;6181180;23;20574;-89
2021/05/10 05:33:26;;;;;;;4.07;3.73;;;18.70;99.90;;;;;;6181779;23;20659;-89
2021/05/10 05:35:53;;;;;;;3.87;3.47;;;18.70;99.90;;;;;;6181024;23;20594;-88
2021/05/10 05:38:19;;;;;;;3.63;3.33;;;18.70;99.90;;;;;;6178656;23;20543;-88
2021/05/10 05:40:46;;;;;;;3.30;3.10;;;18.70;99.90;;;;;;6179120;23;20563;-88
2021/05/10 05:43:13;;;;;;;4.30;3.50;;;18.70;99.90;;;;;;6173736;23;20698;-86
2021/05/10 05:45:40;;;;;;;3.73;3.43;;;18.80;99.90;;;;;;6169478;23;20847;-86
2021/05/10 05:48:08;;;;;;;5.47;3.63;;;18.80;99.90;;;;;;6176972;23;20599;-86
2021/05/10 05:50:34;;;;;;;3.90;3.60;;;18.80;99.90;;;;;;6186030;23;20632;-87
2021/05/10 05:53:01;;;;;;;5.83;3.83;;;18.80;99.90;;;;;;6190911;23;20591;-87
2021/05/10 05:55:30;;;;;;;4.27;3.87;;;18.80;99.90;;;;;;6186404;23;20617;-86
2021/05/10 05:57:59;;;;;;;4.30;3.60;;;18.80;99.90;;;;;;6210952;23;20542;-86
2021/05/10 06:00:26;;;;;;;6.93;3.77;;;18.80;99.90;;;;;;6183873;23;20596;-88
2021/05/10 06:02:51;;;;;;;5.40;4.17;;;18.90;99.90;;;;;;6209942;23;20560;-87
2021/05/10 06:05:17;;;;;;;4.33;3.97;;;18.90;99.90;;;;;;6180280;23;20566;-87
2021/05/10 06:07:44;;;;;;;3.93;3.63;;;18.90;99.90;;;;;;6184305;23;20188;-87
2021/05/10 06:10:12;;;;;;;3.87;3.57;;;18.90;99.90;;;;;;6186306;23;20161;-86
2021/05/10 06:12:39;;;;;;;4.67;3.77;;;18.90;99.90;;;;;;6161721;23;20603;-87
2021/05/10 06:15:08;;;;;;;3.63;3.43;;;18.90;99.90;;;;;;6183381;22;20616;-87
2021/05/10 06:17:38;;;;;;;3.77;3.47;;;19.00;99.90;;;;;;6186070;23;20578;-87
2021/05/10 06:20:09;;;;;;;3.90;3.60;;;19.00;99.90;;;;;;6196488;23;20568;-88
2021/05/10 06:22:39;;;;;;;4.07;3.77;;;19.00;99.90;;;;;;6167917;23;20614;-87
2021/05/10 06:25:10;;;;;;;4.80;3.83;;;19.00;99.90;;;;;;6182007;22;20645;-88
2021/05/10 06:27:35;;;;;;;4.43;3.77;;;19.00;99.90;;;;;;6210666;23;20591;-87
2021/05/10 06:30:01;;;;;;;4.40;3.40;;;19.10;99.90;;;;;;6183238;23;20556;-87
2021/05/10 06:32:27;;;;;;;4.23;3.73;;;19.00;99.90;;;;;;6182449;23;20616;-87
2021/05/10 06:34:52;;;;;;;6.33;4.03;;;19.10;99.90;;;;;;6181347;23;20192;-86
2021/05/10 06:37:20;;;;;;;4.53;3.80;;;19.10;99.90;;;;;;6182367;23;20603;-88
2021/05/10 06:39:49;;;;;;;4.40;3.67;;;19.20;99.90;;;;;;6181284;23;20160;-87
2021/05/10 06:42:15;;;;;;;3.80;3.50;;;19.20;99.90;;;;;;6190804;23;20603;-87
2021/05/10 06:44:41;;;;;;;6.20;4.60;;;19.20;99.90;;;;;;6192269;23;20594;-87
2021/05/10 06:47:07;;;;;;;4.00;3.53;;;19.20;99.90;;;;;;6217725;23;20595;-88
2021/05/10 06:49:33;;;;;;;4.50;3.77;;;19.20;99.90;;;;;;6189957;23;20156;-87
2021/05/10 06:51:59;;;;;;;4.30;3.93;;;19.40;99.90;;;;;;6193876;23;20176;-87
2021/05/10 06:54:25;;;;;;;4.53;3.90;;;19.30;99.90;;;;;;6184970;23;20583;-88
2021/05/10 06:56:51;;;;;;;4.80;4.00;;;19.40;99.90;;;;;;6181916;23;20256;-87
2021/05/10 06:59:20;;;;;;;4.33;3.93;;;19.40;99.90;;;;;;6208604;22;20576;-87
2021/05/10 07:01:46;;;;;;;3.90;3.57;;;19.40;99.90;;;;;;6184100;22;20167;-87
2021/05/10 07:04:11;;;;;;;4.40;4.00;;;19.40;99.90;;;;;;6183156;22;20594;-87
2021/05/10 07:06:37;;;;;;;6.77;4.03;;;19.50;99.90;;;;;;6181125;23;21044;-86
2021/05/10 07:09:04;;;;;;;5.40;3.97;;;19.50;99.90;;;;;;6182406;23;20168;-87
2021/05/10 07:11:30;;;;;;;5.07;3.90;;;19.50;99.90;;;;;;6159318;23;20190;-86
2021/05/10 07:13:56;;;;;;;6.37;4.17;;;19.60;99.90;;;;;;6207288;23;20586;-86
2021/05/10 07:16:21;;;;;;;4.87;3.83;;;19.60;99.90;;;;;;6181792;23;20627;-86
2021/05/10 07:18:47;;;;;;;5.30;4.40;;;19.70;99.90;;;;;;6184231;23;20509;-85
2021/05/10 07:21:12;;;;;;;8.60;4.10;;;19.80;99.90;;;;;;6184200;23;20203;-85
2021/05/10 07:23:38;;;;;;;4.77;3.90;;;19.80;99.90;;;;;;6181784;23;20336;-86
2021/05/10 07:26:04;;;;;;;4.10;3.80;;;19.90;99.90;;;;;;6207913;22;20156;-87
2021/05/10 07:28:29;;;;;;;4.60;4.20;;;20.00;99.90;;;;;;6184596;23;20265;-86
2021/05/10 07:30:55;;;;;;;4.00;3.70;;;20.00;99.90;;;;;;6210268;23;20156;-85
2021/05/10 07:33:20;;;;;;;4.30;3.90;;;20.10;99.90;;;;;;6182425;23;20214;-86
2021/05/10 07:35:46;;;;;;;4.47;4.07;;;20.20;99.90;;;;;;6183869;23;20176;-86
2021/05/10 07:38:12;;;;;;;3.93;3.63;;;20.20;99.90;;;;;;6183010;23;20160;-86
2021/05/10 07:40:38;;;;;;;3.73;3.43;;;20.30;99.90;;;;;;6211543;23;20584;-86
2021/05/10 07:43:04;;;;;;;3.63;3.33;;;20.30;99.90;;;;;;6208376;22;20192;-86
2021/05/10 07:45:33;;;;;;;4.20;3.90;;;20.40;99.90;;;;;;6209436;23;20560;-87
2021/05/10 07:48:00;;;;;;;5.43;3.60;;;20.40;99.90;;;;;;6179496;23;20598;-86
2021/05/10 07:50:27;;;;;;;4.50;4.10;;;20.50;99.90;;;;;;6206036;22;20604;-86
2021/05/10 07:52:53;;;;;;;4.10;3.70;;;20.60;99.90;;;;;;6179512;23;20630;-87
2021/05/10 07:55:19;;;;;;;5.77;4.30;;;20.60;99.90;;;;;;6178875;22;20559;-87
2021/05/10 07:57:46;;;;;;;4.63;3.90;;;20.70;99.90;;;;;;6207757;23;20232;-87
2021/05/10 08:00:16;;;;;;;5.90;3.97;;;20.70;99.90;;;;;;6182464;23;20563;-87
2021/05/10 08:02:46;;;;;;;7.37;4.10;;;20.80;99.90;;;;;;6181710;23;20751;-88
2021/05/10 08:05:12;;;;;;;4.30;3.90;;;20.90;99.90;;;;;;6181078;23;20986;-86
2021/05/10 08:07:38;;;;;;;5.47;4.00;;;21.00;99.90;;;;;;6208543;23;20618;-87
2021/05/10 08:10:05;;;;;;;5.50;4.20;;;21.20;99.90;;;;;;6206732;23;20548;-87
2021/05/10 08:12:30;;;;;;;4.60;4.20;;;21.30;99.90;;;;;;6184243;23;20656;-88
2021/05/10 08:14:56;;;;;;;4.37;3.90;;;21.40;99.90;;;;;;6206522;22;20591;-87
2021/05/10 08:17:22;;;;;;;5.17;4.00;;;21.60;99.90;;;;;;6209053;22;20156;-86
2021/05/10 08:19:48;;;;;;;5.87;3.60;;;21.70;99.90;;;;;;6209316;23;20172;-86
2021/05/10 08:22:14;;;;;;;4.40;3.90;;;21.80;99.90;;;;;;6182903;23;20216;-86
2021/05/10 08:24:39;;;;;;;4.37;3.97;;;22.00;99.90;;;;;;6181808;22;20587;-86
2021/05/10 08:27:05;;;;;;;5.10;3.70;;;22.10;99.90;;;;;;6209293;23;20592;-86
2021/05/10 08:29:32;;;;;;;5.93;3.90;;;22.30;99.90;;;;;;6181577;23;20164;-85
2021/05/10 08:31:59;;;;;;;4.03;3.63;;;22.40;99.90;;;;;;6209265;22;20490;-85
2021/05/10 08:34:25;;;;;;;4.87;3.50;;;22.50;99.90;;;;;;6183624;22;20753;-85
2021/05/10 08:36:53;;;;;;;5.20;3.63;;;22.70;99.90;;;;;;6157662;23;20682;-85
2021/05/10 08:39:19;;;;;;;3.67;3.47;;;22.70;99.90;;;;;;6184808;23;20557;-87
2021/05/10 08:41:45;;;;;;;3.93;3.50;;;22.80;99.90;;;;;;6183497;23;20591;-87
2021/05/10 08:44:11;;;;;;;3.73;3.33;;;22.90;99.90;;;;;;6183093;22;20226;-85
2021/05/10 08:46:39;;;;;;;4.30;3.50;;;23.10;99.90;;;;;;6181961;23;20249;-87
2021/05/10 08:49:08;;;;;;;4.23;3.90;;;23.10;99.90;;;;;;6184065;23;21157;-85
2021/05/10 08:51:35;;;;;;;3.97;3.57;;;23.20;99.90;;;;;;6209247;23;20524;-85
2021/05/10 08:54:01;;;;;;;3.60;3.30;;;23.30;99.90;;;;;;6182011;23;21118;-85
2021/05/10 08:56:27;;;;;;;3.23;3.00;;;23.30;99.90;;;;;;6182671;23;20609;-85
2021/05/10 08:58:52;;;;;;;4.20;3.13;;;23.50;99.90;;;;;;6183793;23;20567;-85
2021/05/10 09:01:21;;;;;;;3.60;3.20;;;23.60;99.90;;;;;;6185138;23;20224;-88
2021/05/10 09:03:50;;;;;;;4.50;3.67;;;23.80;99.90;;;;;;6184147;22;20204;-85
2021/05/10 09:06:27;;;;;;;3.87;2.93;;;23.80;99.90;;;;;;6210435;23;20532;-86
2021/05/10 09:08:53;;;;;;;3.80;2.77;;;24.00;99.90;;;;;;6208530;22;20638;-86
2021/05/10 09:11:20;;;;;;;2.70;2.50;;;24.10;99.90;;;;;;6184594;23;20601;-86
2021/05/10 09:13:57;;;;;;;4.57;2.70;;;24.20;99.90;;;;;;6181607;23;20291;-85
2021/05/10 09:16:23;;;;;;;3.57;2.37;;;24.30;99.90;;;;;;6209758;23;20577;-86
2021/05/10 09:18:53;;;;;;;3.33;2.70;;;24.40;99.90;;;;;;6183787;23;20801;-86
2021/05/10 09:21:27;;;;;;;2.80;2.50;;;24.60;99.90;;;;;;6184169;23;20567;-87
2021/05/10 09:23:53;;;;;;;3.03;2.30;;;24.60;99.90;;;;;;6185561;22;20594;-86
2021/05/10 09:26:34;;;;;;;2.53;2.33;;;24.80;99.90;;;;;;6183171;23;20662;-86
2021/05/10 09:29:00;;;;;;;2.53;2.10;;;24.90;99.90;;;;;;6183284;23;20249;-86
2021/05/10 09:31:27;;;;;;;4.37;2.33;;;24.90;99.90;;;;;;6212199;23;20531;-86
2021/05/10 09:33:53;;;;;;;4.60;2.37;;;25.00;99.90;;;;;;6213551;23;20583;-86
2021/05/10 09:36:34;;;;;;;3.80;3.00;;;25.10;99.90;;;;;;6228016;23;20531;-85
2021/05/10 09:39:04;;;;;;;6.03;2.90;;;25.20;99.90;;;;;;6200393;23;20556;-86
2021/05/10 09:41:32;;;;;;;2.60;2.40;;;25.30;99.90;;;;;;6190216;23;20621;-86
2021/05/10 09:44:06;;;;;;;3.50;2.30;;;25.40;99.90;;;;;;6182108;23;20690;-88
2021/05/10 09:46:40;;;;;;;3.07;2.37;;;25.40;99.90;;;;;;6182853;23;20551;-86
2021/05/10 09:49:07;;;;;;;3.70;2.60;;;25.50;99.90;;;;;;6180530;23;20571;-86
2021/05/10 09:51:33;;;;;;;3.00;2.20;;;25.50;99.90;;;;;;6183096;23;20584;-86
2021/05/10 09:53:59;;;;;;;2.47;2.10;;;25.50;99.90;;;;;;6178921;22;20670;-87
2021/05/10 09:58:58;;;;;;;3.93;2.30;;;25.70;99.90;;;;;;6207489;23;20935;-86
2021/05/10 10:01:24;;;;;;;2.73;2.40;;;25.80;99.90;;;;;;6203479;23;20560;-84
2021/05/10 10:04:03;;;;;;;2.90;2.33;;;25.80;99.90;;;;;;6207050;23;20583;-86
2021/05/10 10:06:29;;;;;;;3.33;2.10;;;25.90;99.90;;;;;;6177653;23;20570;-86
2021/05/10 10:08:55;;;;;;;2.67;2.47;;;26.00;99.90;;;;;;6181065;22;20607;-86
2021/05/10 10:11:25;;;;;;;2.17;2.07;;;26.00;99.90;;;;;;6182526;23;20160;-86
2021/05/10 10:13:53;;;;;;;2.70;2.50;;;26.20;99.90;;;;;;6180103;23;20682;-87
2021/05/10 10:16:37;;;;;;;2.47;2.27;;;26.20;99.90;;;;;;6182585;23;20634;-87
2021/05/10 10:19:07;;;;;;;2.80;2.30;;;26.30;99.90;;;;;;6182316;23;20768;-87
2021/05/10 10:21:35;;;;;;;3.70;2.30;;;26.40;99.90;;;;;;6180493;23;21078;-87
2021/05/10 10:24:04;;;;;;;3.30;3.00;;;26.50;99.90;;;;;;6180899;23;20591;-87
2021/05/10 10:26:29;;;;;;;5.30;2.50;;;26.60;99.90;;;;;;6181294;23;20586;-86
2021/05/10 10:28:57;;;;;;;5.47;2.63;;;26.70;99.90;;;;;;6181291;23;20603;-86
2021/05/10 10:31:35;;;;;;;3.17;2.87;;;26.70;99.90;;;;;;6180834;23;20168;-86
2021/05/10 10:34:05;;;;;;;2.47;2.27;;;26.80;99.90;;;;;;6178009;23;20591;-86
2021/05/10 10:36:33;;;;;;;2.17;2.00;;;26.80;99.90;;;;;;6201765;23;20618;-86
2021/05/10 10:39:20;;;;;;;2.47;2.10;;;26.80;99.90;;;;;;6207544;22;20587;-85
2021/05/10 10:41:57;;;;;;;2.73;2.53;;;26.80;99.90;;;;;;6230273;22;20583;-86
2021/05/10 10:44:41;;;;;;;3.80;2.60;;;26.90;99.80;;;;;;6180001;23;20609;-87
2021/05/10 10:47:10;;;;;;;2.63;2.43;;;27.00;99.90;;;;;;6182973;22;20951;-86
2021/05/10 10:49:41;;;;;;;4.53;2.90;;;27.10;99.90;;;;;;6183391;23;21321;-86
2021/05/10 10:52:24;;;;;;;3.33;2.87;;;27.10;99.90;;;;;;6184487;23;20587;-86
2021/05/10 10:55:15;;;;;;;3.10;2.90;;;27.30;99.40;;;;;;6195840;22;20579;-88
2021/05/10 10:57:41;;;;;;;7.20;2.90;;;27.40;98.60;;;;;;6207955;22;20709;-85
2021/05/10 11:00:08;;;;;;;4.43;2.70;;;27.50;99.70;;;;;;6208155;22;20635;-84
2021/05/10 11:02:50;;;;;;;3.67;2.80;;;27.70;98.40;;;;;;6233972;22;20583;-83
2021/05/10 11:05:19;;;;;;;3.57;2.60;;;27.80;97.20;;;;;;6198508;22;20626;-85
2021/05/10 11:08:04;;;;;;;2.70;2.60;;;27.90;97.00;;;;;;6162007;23;20610;-85
2021/05/10 11:10:51;;;;;;;2.97;2.77;;;27.80;96.40;;;;;;6185224;23;20555;-85
2021/05/10 11:13:41;;;;;;;4.30;2.93;;;27.90;96.60;;;;;;6184266;22;20587;-85
2021/05/10 11:16:14;;;;;;;2.90;2.63;;;27.80;96.40;;;;;;6201259;23;20587;-86
2021/05/10 11:18:53;;;;;;;3.97;3.00;;;27.70;97.90;;;;;;6185406;23;20575;-86
2021/05/10 11:21:37;;;;;;;3.53;3.10;;;27.50;99.00;;;;;;6210349;22;21045;-86
2021/05/10 11:24:05;;;;;;;3.00;2.67;;;27.40;99.90;;;;;;6183357;23;20649;-86
2021/05/10 11:26:50;;;;;;;3.50;3.20;;;27.30;99.90;;;;;;6183092;23;20616;-86
2021/05/10 11:29:24;;;;;;;3.10;2.53;;;27.20;99.90;;;;;;6210565;23;20535;-86
2021/05/10 11:31:58;;;;;;;3.03;2.73;;;27.10;99.90;;;;;;6214471;23;20527;-85
2021/05/10 11:34:36;;;;;;;2.80;2.70;;;27.10;99.90;;;;;;6196709;23;20583;-85
2021/05/10 11:37:02;;;;;;;2.80;2.60;;;27.10;99.30;;;;;;6211149;23;20511;-85
2021/05/10 11:39:30;;;;;;;3.13;2.50;;;27.10;99.90;;;;;;6184459;23;20672;-86
2021/05/10 11:42:01;;;;;;;3.00;2.70;;;27.20;99.30;;;;;;6183512;23;20656;-86
2021/05/10 11:44:45;;;;;;;4.37;2.70;;;27.20;97.60;;;;;;6182444;23;20603;-86
2021/05/10 11:47:13;;;;;;;2.87;2.37;;;27.10;96.00;;;;;;6181647;22;21140;-86
2021/05/10 11:49:52;;;;;;;3.03;2.83;;;27.10;97.40;;;;;;6183047;23;21247;-86
2021/05/10 11:52:26;;;;;;;3.37;2.63;;;27.00;97.30;;;;;;6183075;23;20620;-85
2021/05/10 11:54:56;;;;;;;3.00;2.80;;;26.90;97.00;;;;;;6180912;23;20594;-86
2021/05/10 11:57:24;;;;;;;5.53;2.60;;;26.80;97.30;;;;;;6185127;22;20946;-85
2021/05/10 12:00:12;;;;;;;2.70;2.47;;;26.90;95.80;;;;;;6184254;23;20919;-86
2021/05/10 12:02:41;;;;;;;2.73;2.47;;;26.80;96.90;;;;;;6183727;23;20580;-86
2021/05/10 12:05:08;;;;;;;3.90;2.60;;;26.80;96.20;;;;;;6182766;23;20606;-85
2021/05/10 12:07:35;;;;;;;4.10;2.50;;;26.80;96.10;;;;;;6181034;23;20603;-85
2021/05/10 12:10:04;;;;;;;2.60;2.27;;;26.90;96.50;;;;;;6182807;23;20567;-86
2021/05/10 12:12:45;;;;;;;3.70;2.57;;;27.00;96.50;;;;;;6158035;23;20583;-86
2021/05/10 12:15:24;;;;;;;2.30;2.20;;;27.10;96.40;;;;;;6208288;23;20602;-85
2021/05/10 12:17:52;;;;;;;2.60;2.40;;;27.10;96.30;;;;;;6181463;23;20567;-86
2021/05/10 12:20:23;;;;;;;3.10;2.53;;;27.10;97.50;;;;;;6183246;23;20578;-85
2021/05/10 12:22:52;;;;;;;3.43;2.40;;;27.10;97.20;;;;;;6210655;23;20571;-86
2021/05/10 12:25:19;;;;;;;3.00;2.80;;;27.10;97.90;;;;;;6208087;23;20594;-85
2021/05/10 12:27:48;;;;;;;4.13;2.30;;;27.20;98.70;;;;;;6183034;23;20630;-85
2021/05/10 12:30:18;;;;;;;2.80;2.63;;;27.10;98.00;;;;;;6184346;23;20560;-86
2021/05/10 12:32:50;;;;;;;3.20;2.20;;;27.10;98.40;;;;;;6182933;23;20653;-86
2021/05/10 12:35:18;;;;;;;2.73;2.50;;;27.10;98.70;;;;;;6182538;22;20619;-86
2021/05/10 12:37:49;;;;;;;3.60;2.83;;;27.10;98.90;;;;;;6183223;23;20574;-87
2021/05/10 12:40:16;;;;;;;2.40;2.20;;;27.00;99.10;;;;;;6180000;23;20567;-85
2021/05/10 12:42:43;;;;;;;2.70;2.50;;;27.10;99.60;;;;;;6206323;23;20600;-86
2021/05/10 12:45:11;;;;;;;2.63;2.40;;;27.10;99.40;;;;;;6181124;22;20619;-85
2021/05/10 12:47:50;;;;;;;3.40;2.60;;;27.10;99.70;;;;;;6180683;23;20652;-86
2021/05/10 12:50:37;;;;;;;2.87;2.40;;;27.20;99.30;;;;;;6183552;23;20563;-85
2021/05/10 12:53:05;;;;;;;3.00;2.43;;;27.30;99.70;;;;;;6153396;23;20664;-90
2021/05/10 12:55:33;;;;;;;2.63;2.43;;;27.40;99.00;;;;;;6149613;23;20949;-90
2021/05/10 12:57:59;;;;;;;2.00;1.80;;;27.50;99.30;;;;;;6149070;22;20622;-91
2021/05/10 13:00:43;;;;;;;2.80;2.10;;;27.80;99.40;;;;;;6153819;22;20914;-90
2021/05/10 13:03:29;;;;;;;2.40;2.20;;;28.00;98.20;;;;;;6149275;22;20676;-90